sensor_id;sensor_type;location;lat;lon;timestamp;pressure;altitude;pressure_sealevel;temperature;humidity
30873;BME280;17579;42.690;2.586;2023-05-12T00:00:21;97088.44;;;14.68;42.33
30873;BME280;17579;42.690;2.586;2023-05-12T00:02:57;97098.44;;;14.58;42.27
30873;BME280;17579;42.690;2.586;2023-05-12T00:05:23;97100.63;;;14.63;42.41
30873;BME280;17579;42.690;2.586;2023-05-12T00:08:05;97091.78;;;14.62;42.43
30873;BME280;17579;42.690;2.586;2023-05-12T00:10:34;97088.44;;;14.60;42.70
30873;BME280;17579;42.690;2.586;2023-05-12T00:13:09;97087.31;;;14.54;42.41
30873;BME280;17579;42.690;2.586;2023-05-12T00:15:38;97095.13;;;14.56;42.45
30873;BME280;17579;42.690;2.586;2023-05-12T00:18:03;97085.19;;;14.50;42.58
30873;BME280;17579;42.690;2.586;2023-05-12T00:20:39;97084.69;;;14.46;42.54
30873;BME280;17579;42.690;2.586;2023-05-12T00:23:23;97085.22;;;14.42;42.62
30873;BME280;17579;42.690;2.586;2023-05-12T00:25:52;97085.03;;;14.43;43.01
30873;BME280;17579;42.690;2.586;2023-05-12T00:28:40;97082.09;;;14.38;43.14
30873;BME280;17579;42.690;2.586;2023-05-12T00:31:09;97072.13;;;14.32;43.56
30873;BME280;17579;42.690;2.586;2023-05-12T00:33:43;97074.81;;;14.24;43.42
30873;BME280;17579;42.690;2.586;2023-05-12T00:36:11;97080.13;;;14.24;43.69
30873;BME280;17579;42.690;2.586;2023-05-12T00:38:48;97080.13;;;14.24;43.93
30873;BME280;17579;42.690;2.586;2023-05-12T00:41:16;97081.16;;;14.23;43.90
30873;BME280;17579;42.690;2.586;2023-05-12T00:43:44;97070.84;;;14.19;43.52
30873;BME280;17579;42.690;2.586;2023-05-12T00:46:18;97069.03;;;14.12;43.85
30873;BME280;17579;42.690;2.586;2023-05-12T00:48:53;97060.59;;;14.08;43.96
30873;BME280;17579;42.690;2.586;2023-05-12T00:51:22;97054.56;;;14.14;43.91
30873;BME280;17579;42.690;2.586;2023-05-12T00:53:51;97051.28;;;14.12;44.13
30873;BME280;17579;42.690;2.586;2023-05-12T00:56:19;97049.59;;;14.11;44.45
30873;BME280;17579;42.690;2.586;2023-05-12T00:58:50;97052.63;;;14.08;44.21
30873;BME280;17579;42.690;2.586;2023-05-12T01:01:21;97053.59;;;14.07;44.09
30873;BME280;17579;42.690;2.586;2023-05-12T01:03:57;97046.16;;;14.02;44.13
30873;BME280;17579;42.690;2.586;2023-05-12T01:06:42;97032.69;;;13.96;44.41
30873;BME280;17579;42.690;2.586;2023-05-12T01:09:10;97032.06;;;13.94;44.52
30873;BME280;17579;42.690;2.586;2023-05-12T01:11:42;97037.03;;;13.89;44.53
30873;BME280;17579;42.690;2.586;2023-05-12T01:14:13;97022.25;;;13.86;44.85
30873;BME280;17579;42.690;2.586;2023-05-12T01:16:54;97028.28;;;13.80;44.88
30873;BME280;17579;42.690;2.586;2023-05-12T01:19:37;97036.88;;;13.82;44.91
30873;BME280;17579;42.690;2.586;2023-05-12T01:22:10;97018.97;;;13.84;45.09
30873;BME280;17579;42.690;2.586;2023-05-12T01:24:49;97024.63;;;13.81;45.17
30873;BME280;17579;42.690;2.586;2023-05-12T01:27:35;97027.63;;;13.78;45.15
30873;BME280;17579;42.690;2.586;2023-05-12T01:30:13;97030.56;;;13.91;45.07
30873;BME280;17579;42.690;2.586;2023-05-12T01:32:43;97022.59;;;13.91;45.33
30873;BME280;17579;42.690;2.586;2023-05-12T01:35:12;97028.25;;;13.88;45.28
30873;BME280;17579;42.690;2.586;2023-05-12T01:37:45;97022.09;;;13.88;45.73
30873;BME280;17579;42.690;2.586;2023-05-12T01:40:20;97017.63;;;13.88;45.12
30873;BME280;17579;42.690;2.586;2023-05-12T01:42:53;97011.94;;;13.91;45.60
30873;BME280;17579;42.690;2.586;2023-05-12T01:45:19;97011.13;;;13.91;45.31
30873;BME280;17579;42.690;2.586;2023-05-12T01:47:44;97006.81;;;13.90;45.30
30873;BME280;17579;42.690;2.586;2023-05-12T01:53:04;97001.31;;;13.91;45.44
30873;BME280;17579;42.690;2.586;2023-05-12T01:55:40;96995.00;;;13.92;45.59
30873;BME280;17579;42.690;2.586;2023-05-12T01:58:16;96997.84;;;13.91;45.50
30873;BME280;17579;42.690;2.586;2023-05-12T02:00:47;97000.81;;;13.88;45.48
30873;BME280;17579;42.690;2.586;2023-05-12T02:03:15;97002.84;;;13.85;45.79
30873;BME280;17579;42.690;2.586;2023-05-12T02:05:41;96999.53;;;13.83;45.71
30873;BME280;17579;42.690;2.586;2023-05-12T02:08:27;97000.19;;;13.77;46.03
30873;BME280;17579;42.690;2.586;2023-05-12T02:13:42;96990.59;;;13.68;46.24
30873;BME280;17579;42.690;2.586;2023-05-12T02:16:11;96990.78;;;13.66;46.35
30873;BME280;17579;42.690;2.586;2023-05-12T02:18:39;96990.94;;;13.65;46.49
30873;BME280;17579;42.690;2.586;2023-05-12T02:21:07;96985.66;;;13.57;47.19
30873;BME280;17579;42.690;2.586;2023-05-12T02:23:38;96994.50;;;13.49;47.40
30873;BME280;17579;42.690;2.586;2023-05-12T02:26:04;97002.59;;;13.47;47.54
30873;BME280;17579;42.690;2.586;2023-05-12T02:28:35;97001.13;;;13.45;47.35
30873;BME280;17579;42.690;2.586;2023-05-12T02:31:21;97000.97;;;13.38;47.80
30873;BME280;17579;42.690;2.586;2023-05-12T02:33:49;97002.81;;;13.38;48.11
30873;BME280;17579;42.690;2.586;2023-05-12T02:36:51;97009.09;;;13.28;47.46
30873;BME280;17579;42.690;2.586;2023-05-12T02:39:20;97004.09;;;13.33;48.19
30873;BME280;17579;42.690;2.586;2023-05-12T02:41:46;97005.63;;;13.28;48.29
30873;BME280;17579;42.690;2.586;2023-05-12T02:44:19;96999.13;;;13.22;48.47
30873;BME280;17579;42.690;2.586;2023-05-12T02:46:54;96999.66;;;13.17;48.76
30873;BME280;17579;42.690;2.586;2023-05-12T02:49:34;96991.19;;;13.14;48.52
30873;BME280;17579;42.690;2.586;2023-05-12T02:52:00;96996.81;;;13.11;48.96
30873;BME280;17579;42.690;2.586;2023-05-12T02:54:31;96988.53;;;13.06;49.01
30873;BME280;17579;42.690;2.586;2023-05-12T02:57:06;96995.66;;;13.05;48.77
30873;BME280;17579;42.690;2.586;2023-05-12T02:59:52;96990.03;;;12.92;48.09
30873;BME280;17579;42.690;2.586;2023-05-12T03:02:36;96981.56;;;12.88;47.77
30873;BME280;17579;42.690;2.586;2023-05-12T03:05:05;96986.38;;;12.93;48.01
30873;BME280;17579;42.690;2.586;2023-05-12T03:07:34;96988.88;;;12.86;47.91
30873;BME280;17579;42.690;2.586;2023-05-12T03:10:20;96993.53;;;12.76;47.74
30873;BME280;17579;42.690;2.586;2023-05-12T03:12:46;96984.22;;;12.80;48.03
30873;BME280;17579;42.690;2.586;2023-05-12T03:15:32;96988.53;;;12.73;47.96
30873;BME280;17579;42.690;2.586;2023-05-12T03:18:01;96985.88;;;12.73;47.95
30873;BME280;17579;42.690;2.586;2023-05-12T03:20:38;96988.53;;;12.64;47.93
30873;BME280;17579;42.690;2.586;2023-05-12T03:23:19;96990.19;;;12.65;47.95
30873;BME280;17579;42.690;2.586;2023-05-12T03:25:51;96982.38;;;12.64;48.06
30873;BME280;17579;42.690;2.586;2023-05-12T03:28:19;96987.38;;;12.67;48.46
30873;BME280;17579;42.690;2.586;2023-05-12T03:30:47;96986.53;;;12.67;48.21
30873;BME280;17579;42.690;2.586;2023-05-12T03:33:23;96980.75;;;12.63;48.08
30873;BME280;17579;42.690;2.586;2023-05-12T03:35:56;96984.06;;;12.65;48.53
30873;BME280;17579;42.690;2.586;2023-05-12T03:38:24;96987.22;;;12.60;48.62
30873;BME280;17579;42.690;2.586;2023-05-12T03:43:34;96973.28;;;12.67;48.39
30873;BME280;17579;42.690;2.586;2023-05-12T03:46:14;96970.63;;;12.67;48.41
30873;BME280;17579;42.690;2.586;2023-05-12T03:48:55;96974.44;;;12.72;48.27
30873;BME280;17579;42.690;2.586;2023-05-12T03:51:32;96962.50;;;12.76;48.29
30873;BME280;17579;42.690;2.586;2023-05-12T03:54:20;96967.16;;;12.74;48.24
30873;BME280;17579;42.690;2.586;2023-05-12T03:56:53;96958.69;;;12.71;48.35
30873;BME280;17579;42.690;2.586;2023-05-12T03:59:29;96966.97;;;12.68;48.24
30873;BME280;17579;42.690;2.586;2023-05-12T04:01:58;96970.97;;;12.72;48.38
30873;BME280;17579;42.690;2.586;2023-05-12T04:04:27;96956.38;;;12.68;48.05
30873;BME280;17579;42.690;2.586;2023-05-12T04:06:55;96966.00;;;12.69;48.24
30873;BME280;17579;42.690;2.586;2023-05-12T04:09:21;96963.16;;;12.70;48.49
30873;BME280;17579;42.690;2.586;2023-05-12T04:12:00;96962.31;;;12.70;48.69
30873;BME280;17579;42.690;2.586;2023-05-12T04:14:31;96962.19;;;12.63;48.87
30873;BME280;17579;42.690;2.586;2023-05-12T04:17:07;96953.19;;;12.64;48.86
30873;BME280;17579;42.690;2.586;2023-05-12T04:19:38;96952.72;;;12.60;48.82
30873;BME280;17579;42.690;2.586;2023-05-12T04:22:04;96950.88;;;12.61;49.10
30873;BME280;17579;42.690;2.586;2023-05-12T04:26:59;96936.13;;;12.58;49.17
30873;BME280;17579;42.690;2.586;2023-05-12T04:29:28;96927.16;;;12.59;48.88
30873;BME280;17579;42.690;2.586;2023-05-12T04:31:56;96920.06;;;12.60;48.97
30873;BME280;17579;42.690;2.586;2023-05-12T04:34:25;96923.38;;;12.62;49.04
30873;BME280;17579;42.690;2.586;2023-05-12T04:36:51;96920.72;;;12.62;48.98
30873;BME280;17579;42.690;2.586;2023-05-12T04:39:19;96910.91;;;12.62;48.96
30873;BME280;17579;42.690;2.586;2023-05-12T04:41:50;96914.91;;;12.67;48.75
30873;BME280;17579;42.690;2.586;2023-05-12T04:44:18;96911.75;;;12.71;48.79
30873;BME280;17579;42.690;2.586;2023-05-12T04:47:05;96902.97;;;12.71;48.52
30873;BME280;17579;42.690;2.586;2023-05-12T04:49:41;96922.19;;;12.73;48.70
30873;BME280;17579;42.690;2.586;2023-05-12T04:52:09;96914.72;;;12.76;48.15
30873;BME280;17579;42.690;2.586;2023-05-12T04:54:35;96925.69;;;12.81;48.69
30873;BME280;17579;42.690;2.586;2023-05-12T04:57:09;96925.69;;;12.81;48.32
30873;BME280;17579;42.690;2.586;2023-05-12T04:59:43;96925.50;;;12.91;48.58
30873;BME280;17579;42.690;2.586;2023-05-12T05:07:40;96928.13;;;12.91;48.13
30873;BME280;17579;42.690;2.586;2023-05-12T05:08:03;96922.66;;;12.93;48.36
30873;BME280;17579;42.690;2.586;2023-05-12T05:10:31;96927.84;;;12.86;48.56
30873;BME280;17579;42.690;2.586;2023-05-12T05:12:59;96923.84;;;12.82;48.63
30873;BME280;17579;42.690;2.586;2023-05-12T05:15:34;96931.47;;;12.77;48.56
30873;BME280;17579;42.690;2.586;2023-05-12T05:18:08;96934.47;;;12.82;48.77
30873;BME280;17579;42.690;2.586;2023-05-12T05:23:22;96926.00;;;12.95;48.53
30873;BME280;17579;42.690;2.586;2023-05-12T05:26:03;96925.81;;;12.96;48.55
30873;BME280;17579;42.690;2.586;2023-05-12T05:28:29;96933.44;;;12.99;48.34
30873;BME280;17579;42.690;2.586;2023-05-12T05:31:05;96931.47;;;13.02;48.74
30873;BME280;17579;42.690;2.586;2023-05-12T05:33:31;96925.31;;;13.01;48.27
30873;BME280;17579;42.690;2.586;2023-05-12T05:35:57;96929.47;;;13.04;48.27
30873;BME280;17579;42.690;2.586;2023-05-12T05:38:28;96929.28;;;13.05;48.26
30873;BME280;17579;42.690;2.586;2023-05-12T05:40:59;96921.97;;;13.07;47.83
30873;BME280;17579;42.690;2.586;2023-05-12T05:43:25;96914.84;;;13.08;48.27
30873;BME280;17579;42.690;2.586;2023-05-12T05:45:51;96902.22;;;13.10;47.95
30873;BME280;17579;42.690;2.586;2023-05-12T05:48:20;96903.06;;;13.10;47.68
30873;BME280;17579;42.690;2.586;2023-05-12T05:50:46;96910.03;;;13.11;47.61
30873;BME280;17579;42.690;2.586;2023-05-12T05:53:33;96902.22;;;13.10;47.53
30873;BME280;17579;42.690;2.586;2023-05-12T05:56:06;96909.66;;;13.23;47.40
30873;BME280;17579;42.690;2.586;2023-05-12T05:58:40;96914.47;;;13.36;46.83
30873;BME280;17579;42.690;2.586;2023-05-12T06:01:08;96908.47;;;13.81;46.62
30873;BME280;17579;42.690;2.586;2023-05-12T06:03:36;96915.00;;;14.02;45.73
30873;BME280;17579;42.690;2.586;2023-05-12T06:06:08;96919.84;;;14.30;45.50
30873;BME280;17579;42.690;2.586;2023-05-12T06:08:36;96927.81;;;14.76;45.56
30873;BME280;17579;42.690;2.586;2023-05-12T06:11:16;96934.88;;;15.22;44.23
30873;BME280;17579;42.690;2.586;2023-05-12T06:13:44;96940.09;;;15.15;43.82
30873;BME280;17579;42.690;2.586;2023-05-12T06:16:10;96943.13;;;14.97;43.87
30873;BME280;17579;42.690;2.586;2023-05-12T06:18:38;96936.38;;;14.86;43.88
30873;BME280;17579;42.690;2.586;2023-05-12T06:21:09;96935.34;;;14.72;43.97
30873;BME280;17579;42.690;2.586;2023-05-12T06:23:44;96933.88;;;14.70;43.89
30873;BME280;17579;42.690;2.586;2023-05-12T06:26:16;96930.00;;;14.49;44.11
30873;BME280;17579;42.690;2.586;2023-05-12T06:28:47;96938.88;;;14.42;44.22
30873;BME280;17579;42.690;2.586;2023-05-12T06:31:16;96935.63;;;14.31;43.95
30873;BME280;17579;42.690;2.586;2023-05-12T06:33:44;96948.44;;;14.28;44.52
30873;BME280;17579;42.690;2.586;2023-05-12T06:36:12;96955.28;;;14.22;44.19
30873;BME280;17579;42.690;2.586;2023-05-12T06:38:43;96950.63;;;14.24;44.73
30873;BME280;17579;42.690;2.586;2023-05-12T06:41:26;96955.94;;;14.24;44.58
30873;BME280;17579;42.690;2.586;2023-05-12T06:47:06;96963.16;;;14.15;44.62
30873;BME280;17579;42.690;2.586;2023-05-12T06:49:35;96955.53;;;14.12;44.72
30873;BME280;17579;42.690;2.586;2023-05-12T06:52:16;96956.16;;;14.14;44.40
30873;BME280;17579;42.690;2.586;2023-05-12T06:54:44;96954.50;;;14.13;44.71
30873;BME280;17579;42.690;2.586;2023-05-12T06:57:15;96944.72;;;14.14;44.22
30873;BME280;17579;42.690;2.586;2023-05-12T06:59:41;96958.00;;;14.14;44.36
30873;BME280;17579;42.690;2.586;2023-05-12T07:02:18;96961.84;;;14.11;44.74
30873;BME280;17579;42.690;2.586;2023-05-12T07:04:55;96931.78;;;14.11;44.28
30873;BME280;17579;42.690;2.586;2023-05-12T07:07:31;96950.53;;;14.09;44.30
30873;BME280;17579;42.690;2.586;2023-05-12T07:09:59;96950.22;;;14.12;44.63
30873;BME280;17579;42.690;2.586;2023-05-12T07:12:28;96937.88;;;14.19;43.92
30873;BME280;17579;42.690;2.586;2023-05-12T07:14:56;96958.28;;;14.19;43.76
30873;BME280;17579;42.690;2.586;2023-05-12T07:17:24;96958.28;;;14.19;43.89
30873;BME280;17579;42.690;2.586;2023-05-12T07:20:09;96945.50;;;14.23;43.80
30873;BME280;17579;42.690;2.586;2023-05-12T07:22:44;96954.63;;;14.20;43.92
30873;BME280;17579;42.690;2.586;2023-05-12T07:25:25;96964.88;;;14.31;43.40
30873;BME280;17579;42.690;2.586;2023-05-12T07:28:03;96961.88;;;14.34;43.51
30873;BME280;17579;42.690;2.586;2023-05-12T07:30:36;96962.50;;;14.36;43.66
30873;BME280;17579;42.690;2.586;2023-05-12T07:33:04;96965.31;;;14.43;43.19
30873;BME280;17579;42.690;2.586;2023-05-12T07:35:51;96959.34;;;14.41;43.40
30873;BME280;17579;42.690;2.586;2023-05-12T07:38:26;96960.16;;;14.42;43.50
30873;BME280;17579;42.690;2.586;2023-05-12T07:40:58;96960.16;;;14.42;43.48
30873;BME280;17579;42.690;2.586;2023-05-12T07:43:30;96959.78;;;14.45;43.48
30873;BME280;17579;42.690;2.586;2023-05-12T07:46:05;96954.13;;;14.48;43.46
30873;BME280;17579;42.690;2.586;2023-05-12T07:48:31;96953.94;;;14.49;43.30
30873;BME280;17579;42.690;2.586;2023-05-12T07:51:06;96956.09;;;14.54;43.85
30873;BME280;17579;42.690;2.586;2023-05-12T07:53:32;96951.03;;;14.59;43.57
30873;BME280;17579;42.690;2.586;2023-05-12T07:56:08;96944.22;;;14.65;43.94
30873;BME280;17579;42.690;2.586;2023-05-12T07:58:46;96941.84;;;14.70;44.02
30873;BME280;17579;42.690;2.586;2023-05-12T08:01:17;96936.00;;;14.75;43.75
30873;BME280;17579;42.690;2.586;2023-05-12T08:04:03;96930.78;;;14.81;43.72
30873;BME280;17579;42.690;2.586;2023-05-12T08:06:29;96937.88;;;15.04;43.19
30873;BME280;17579;42.690;2.586;2023-05-12T08:08:55;96940.78;;;15.17;43.21
30873;BME280;17579;42.690;2.586;2023-05-12T08:11:25;96944.44;;;15.31;43.32
30873;BME280;17579;42.690;2.586;2023-05-12T08:14:21;96940.78;;;15.62;43.27
30873;BME280;17579;42.690;2.586;2023-05-12T08:16:55;96927.09;;;15.80;42.51
30873;BME280;17579;42.690;2.586;2023-05-12T08:19:29;96916.94;;;15.75;42.01
30873;BME280;17579;42.690;2.586;2023-05-12T08:22:00;96913.56;;;15.67;42.50
30873;BME280;17579;42.690;2.586;2023-05-12T08:24:46;96901.03;;;15.67;42.19
30873;BME280;17579;42.690;2.586;2023-05-12T08:27:15;96912.19;;;15.71;42.07
30873;BME280;17579;42.690;2.586;2023-05-12T08:29:43;96912.13;;;15.79;42.07
30873;BME280;17579;42.690;2.586;2023-05-12T08:32:08;96920.38;;;15.84;41.57
30873;BME280;17579;42.690;2.586;2023-05-12T08:34:37;96904.94;;;16.16;41.09
30873;BME280;17579;42.690;2.586;2023-05-12T08:37:26;96913.59;;;16.61;40.71
30873;BME280;17579;42.690;2.586;2023-05-12T08:39:52;96915.34;;;17.26;40.72
30873;BME280;17579;42.690;2.586;2023-05-12T08:45:13;96912.81;;;17.18;39.17
30873;BME280;17579;42.690;2.586;2023-05-12T08:47:44;96929.03;;;17.44;38.67
30873;BME280;17579;42.690;2.586;2023-05-12T08:50:20;96924.00;;;17.63;38.80
30873;BME280;17579;42.690;2.586;2023-05-12T08:52:55;96923.28;;;17.89;38.33
30873;BME280;17579;42.690;2.586;2023-05-12T08:55:25;96927.75;;;17.75;38.27
30873;BME280;17579;42.690;2.586;2023-05-12T08:58:19;96936.81;;;17.39;39.12
30873;BME280;17579;42.690;2.586;2023-05-12T09:00:58;96934.78;;;17.13;39.32
30873;BME280;17579;42.690;2.586;2023-05-12T09:03:30;96943.22;;;16.88;40.17
30873;BME280;17579;42.690;2.586;2023-05-12T09:06:05;96962.72;;;16.67;40.78
30873;BME280;17579;42.690;2.586;2023-05-12T09:08:39;96975.50;;;16.50;40.79
30873;BME280;17579;42.690;2.586;2023-05-12T09:11:14;96956.88;;;16.35;41.44
30873;BME280;17579;42.690;2.586;2023-05-12T09:14:04;96959.03;;;16.25;41.48
30873;BME280;17579;42.690;2.586;2023-05-12T09:16:40;96962.03;;;16.22;41.60
30873;BME280;17579;42.690;2.586;2023-05-12T09:19:14;96952.47;;;16.27;41.54
30873;BME280;17579;42.690;2.586;2023-05-12T09:21:48;96959.44;;;16.43;41.74
30873;BME280;17579;42.690;2.586;2023-05-12T09:24:17;96955.19;;;16.71;41.30
30873;BME280;17579;42.690;2.586;2023-05-12T09:26:53;96950.72;;;16.78;40.81
30873;BME280;17579;42.690;2.586;2023-05-12T09:29:21;96940.66;;;16.80;40.54
30873;BME280;17579;42.690;2.586;2023-05-12T09:31:51;96932.25;;;16.83;40.66
30873;BME280;17579;42.690;2.586;2023-05-12T09:37:10;96926.53;;;16.65;39.90
30873;BME280;17579;42.690;2.586;2023-05-12T09:39:41;96921.97;;;16.58;39.42
30873;BME280;17579;42.690;2.586;2023-05-12T09:44:42;96928.72;;;16.54;39.86
30873;BME280;17579;42.690;2.586;2023-05-12T09:47:08;96933.78;;;16.49;39.83
30873;BME280;17579;42.690;2.586;2023-05-12T09:49:45;96933.94;;;16.41;40.38
30873;BME280;17579;42.690;2.586;2023-05-12T09:52:22;96913.09;;;16.51;39.77
30873;BME280;17579;42.690;2.586;2023-05-12T09:55:06;96916.34;;;16.47;39.96
30873;BME280;17579;42.690;2.586;2023-05-12T09:57:42;96910.91;;;16.61;39.78
30873;BME280;17579;42.690;2.586;2023-05-12T10:00:13;96906.72;;;16.74;39.53
30873;BME280;17579;42.690;2.586;2023-05-12T10:02:46;96909.22;;;16.82;39.75
30873;BME280;17579;42.690;2.586;2023-05-12T10:05:14;96905.34;;;16.85;39.04
30873;BME280;17579;42.690;2.586;2023-05-12T10:07:53;96894.88;;;16.83;39.28
30873;BME280;17579;42.690;2.586;2023-05-12T10:10:25;96906.06;;;16.93;39.02
30873;BME280;17579;42.690;2.586;2023-05-12T10:12:57;96905.41;;;17.13;39.21
30873;BME280;17579;42.690;2.586;2023-05-12T10:15:25;96911.47;;;17.35;38.87
30873;BME280;17579;42.690;2.586;2023-05-12T10:20:57;96912.50;;;17.69;38.60
30873;BME280;17579;42.690;2.586;2023-05-12T10:23:48;96909.41;;;17.72;38.96
30873;BME280;17579;42.690;2.586;2023-05-12T10:26:23;96902.81;;;17.68;38.12
30873;BME280;17579;42.690;2.586;2023-05-12T10:28:56;96895.09;;;17.45;37.85
30873;BME280;17579;42.690;2.586;2023-05-12T10:31:46;96897.47;;;17.26;38.33
30873;BME280;17579;42.690;2.586;2023-05-12T10:34:16;96911.59;;;17.20;38.89
30873;BME280;17579;42.690;2.586;2023-05-12T10:36:47;96903.94;;;17.10;38.66
30873;BME280;17579;42.690;2.586;2023-05-12T10:39:33;96889.38;;;17.13;38.81
30873;BME280;17579;42.690;2.586;2023-05-12T10:44:51;96874.59;;;17.17;39.26
30873;BME280;17579;42.690;2.586;2023-05-12T10:47:37;96877.84;;;17.12;39.84
30873;BME280;17579;42.690;2.586;2023-05-12T10:50:09;96871.16;;;17.30;39.34
30873;BME280;17579;42.690;2.586;2023-05-12T10:52:56;96862.09;;;17.31;39.40
30873;BME280;17579;42.690;2.586;2023-05-12T10:55:34;96865.06;;;17.43;38.66
30873;BME280;17579;42.690;2.586;2023-05-12T10:58:10;96862.81;;;17.40;38.58
30873;BME280;17579;42.690;2.586;2023-05-12T11:00:51;96842.72;;;17.57;39.43
30873;BME280;17579;42.690;2.586;2023-05-12T11:03:43;96851.72;;;17.98;39.31
30873;BME280;17579;42.690;2.586;2023-05-12T11:06:21;96853.22;;;18.34;38.60
30873;BME280;17579;42.690;2.586;2023-05-12T11:09:00;96839.22;;;18.59;37.26
30873;BME280;17579;42.690;2.586;2023-05-12T11:11:33;96848.31;;;18.78;37.43
30873;BME280;17579;42.690;2.586;2023-05-12T11:14:22;96839.84;;;19.01;37.71
30873;BME280;17579;42.690;2.586;2023-05-12T11:17:07;96828.66;;;19.24;36.18
30873;BME280;17579;42.690;2.586;2023-05-12T11:19:43;96819.38;;;19.27;35.47
30873;BME280;17579;42.690;2.586;2023-05-12T11:22:21;96827.00;;;19.23;35.44
30873;BME280;17579;42.690;2.586;2023-05-12T11:25:08;96831.97;;;19.19;35.83
30873;BME280;17579;42.690;2.586;2023-05-12T11:27:34;96832.59;;;19.21;35.00
30873;BME280;17579;42.690;2.586;2023-05-12T11:30:06;96831.13;;;19.26;35.30
30873;BME280;17579;42.690;2.586;2023-05-12T11:32:41;96831.94;;;19.26;35.17
30873;BME280;17579;42.690;2.586;2023-05-12T11:35:11;96834.19;;;19.36;36.09
30873;BME280;17579;42.690;2.586;2023-05-12T11:37:51;96835.63;;;19.38;35.91
30873;BME280;17579;42.690;2.586;2023-05-12T11:40:33;96804.47;;;19.44;35.08
30873;BME280;17579;42.690;2.586;2023-05-12T11:43:08;96819.75;;;19.37;34.49
30873;BME280;17579;42.690;2.586;2023-05-12T11:45:39;96819.13;;;19.35;34.29
30873;BME280;17579;42.690;2.586;2023-05-12T11:48:15;96817.06;;;19.37;34.87
30873;BME280;17579;42.690;2.586;2023-05-12T11:51:07;96820.91;;;19.54;34.72
30873;BME280;17579;42.690;2.586;2023-05-12T11:53:53;96828.53;;;19.58;34.34
30873;BME280;17579;42.690;2.586;2023-05-12T12:01:54;96810.78;;;19.63;33.53
30873;BME280;17579;42.690;2.586;2023-05-12T12:06:47;96810.91;;;19.75;34.25
30873;BME280;17579;42.690;2.586;2023-05-12T12:09:15;96812.28;;;19.91;34.53
30873;BME280;17579;42.690;2.586;2023-05-12T12:11:52;96789.28;;;20.08;34.52
30873;BME280;17579;42.690;2.586;2023-05-12T12:14:19;96807.00;;;20.16;34.40
30873;BME280;17579;42.690;2.586;2023-05-12T12:16:54;96814.69;;;20.38;33.75
30873;BME280;17579;42.690;2.586;2023-05-12T12:19:33;96810.63;;;20.54;33.14
30873;BME280;17579;42.690;2.586;2023-05-12T12:24:45;96799.53;;;20.94;31.49
30873;BME280;17579;42.690;2.586;2023-05-12T12:27:13;96800.91;;;21.22;32.93
30873;BME280;17579;42.690;2.586;2023-05-12T12:29:39;96785.69;;;21.53;32.65
30873;BME280;17579;42.690;2.586;2023-05-12T12:32:07;96798.28;;;21.71;32.49
30873;BME280;17579;42.690;2.586;2023-05-12T12:34:38;96792.75;;;21.96;32.17
30873;BME280;17579;42.690;2.586;2023-05-12T12:37:18;96800.53;;;22.16;31.85
30873;BME280;17579;42.690;2.586;2023-05-12T12:39:57;96802.25;;;22.41;32.28
30873;BME280;17579;42.690;2.586;2023-05-12T12:42:37;96800.78;;;22.69;31.66
30873;BME280;17579;42.690;2.586;2023-05-12T12:45:12;96805.22;;;22.63;31.95
30873;BME280;17579;42.690;2.586;2023-05-12T12:48:30;96793.97;;;22.78;32.01
30873;BME280;17579;42.690;2.586;2023-05-12T12:51:16;96797.00;;;23.05;31.51
30873;BME280;17579;42.690;2.586;2023-05-12T12:53:46;96780.16;;;23.22;31.15
30873;BME280;17579;42.690;2.586;2023-05-12T12:56:25;96786.91;;;23.24;30.61
30873;BME280;17579;42.690;2.586;2023-05-12T12:59:00;96793.97;;;23.25;30.46
30873;BME280;17579;42.690;2.586;2023-05-12T13:01:39;96803.81;;;23.08;30.89
30873;BME280;17579;42.690;2.586;2023-05-12T13:04:14;96804.06;;;23.06;31.31
30873;BME280;17579;42.690;2.586;2023-05-12T13:06:51;96808.38;;;23.07;31.27
30873;BME280;17579;42.690;2.586;2023-05-12T13:09:33;96814.38;;;23.09;30.63
30873;BME280;17579;42.690;2.586;2023-05-12T13:12:01;96797.22;;;23.27;30.01
30873;BME280;17579;42.690;2.586;2023-05-12T13:20:39;96791.16;;;22.96;28.68
30873;BME280;17579;42.690;2.586;2023-05-12T13:23:22;96795.72;;;23.08;28.31
30873;BME280;17579;42.690;2.586;2023-05-12T13:25:15;96785.88;;;22.78;29.51
30873;BME280;17579;42.690;2.586;2023-05-12T13:26:35;96775.47;;;22.81;28.66
30873;BME280;17579;42.690;2.586;2023-05-12T13:29:06;96792.00;;;22.73;29.02
30873;BME280;17579;42.690;2.586;2023-05-12T13:31:53;96798.66;;;22.71;29.28
30873;BME280;17579;42.690;2.586;2023-05-12T13:34:36;96790.94;;;22.74;29.20
30873;BME280;17579;42.690;2.586;2023-05-12T13:40:41;96787.88;;;22.94;29.72
30873;BME280;17579;42.690;2.586;2023-05-12T13:43:07;96795.50;;;23.09;29.40
30873;BME280;17579;42.690;2.586;2023-05-12T13:45:39;96801.03;;;23.14;29.17
30873;BME280;17579;42.690;2.586;2023-05-12T13:48:07;96788.34;;;23.03;29.12
30873;BME280;17579;42.690;2.586;2023-05-12T13:50:41;96786.81;;;22.95;29.11
30873;BME280;17579;42.690;2.586;2023-05-12T13:53:32;96797.75;;;22.89;29.08
30873;BME280;17579;42.690;2.586;2023-05-12T13:56:21;96792.22;;;22.95;28.99
30873;BME280;17579;42.690;2.586;2023-05-12T13:59:01;96789.97;;;23.04;29.37
30873;BME280;17579;42.690;2.586;2023-05-12T14:01:50;96801.47;;;22.88;29.77
30873;BME280;17579;42.690;2.586;2023-05-12T14:04:44;96779.81;;;22.94;28.99
30873;BME280;17579;42.690;2.586;2023-05-12T14:07:15;96790.00;;;22.69;29.89
30873;BME280;17579;42.690;2.586;2023-05-12T14:09:56;96781.06;;;22.44;29.84
30873;BME280;17579;42.690;2.586;2023-05-12T14:12:42;96782.88;;;22.20;30.17
30873;BME280;17579;42.690;2.586;2023-05-12T14:18:07;96780.34;;;21.46;31.30
30873;BME280;17579;42.690;2.586;2023-05-12T14:20:38;96787.22;;;21.42;30.91
30873;BME280;17579;42.690;2.586;2023-05-12T14:23:14;96774.00;;;21.40;30.51
30873;BME280;17579;42.690;2.586;2023-05-12T14:26:15;96778.50;;;21.28;30.85
30873;BME280;17579;42.690;2.586;2023-05-12T14:28:54;96777.53;;;21.22;31.04
30873;BME280;17579;42.690;2.586;2023-05-12T14:31:50;96764.75;;;20.99;31.62